Time;durP1;ratioP1;P1;durP2;ratioP2;P2;SDS_P1;SDS_P2;PMS_P1;PMS_P2;Temp;Humidity;BMP_temperature;BMP_pressure;BME280_temperature;BME280_humidity;BME280_pressure;Samples;Min_cycle;Max_cycle;Signal;HPM_P1;HPM_P2
2022/10/11 00:01:58;;;;;;;10.53;6.43;;;17.40;97.60;;;;;;5098640;28;20825;-44
2022/10/11 00:04:24;;;;;;;7.97;6.20;;;17.40;97.70;;;;;;5099362;28;20194;-43
2022/10/11 00:06:50;;;;;;;10.17;5.70;;;17.40;97.60;;;;;;5099364;28;20186;-45
2022/10/11 00:09:16;;;;;;;8.40;7.00;;;17.30;97.60;;;;;;5098487;28;20249;-47
2022/10/11 00:11:42;;;;;;;7.57;5.47;;;17.30;97.70;;;;;;5098909;28;20212;-44
2022/10/11 00:14:08;;;;;;;11.70;5.67;;;17.20;97.70;;;;;;5097774;28;20439;-44
2022/10/11 00:16:33;;;;;;;6.03;4.77;;;17.20;97.80;;;;;;5096625;28;20312;-48
2022/10/11 00:18:59;;;;;;;8.07;5.23;;;17.20;97.80;;;;;;5095458;28;20417;-43
2022/10/11 00:21:25;;;;;;;6.70;4.97;;;17.20;97.80;;;;;;5097014;28;20264;-43
2022/10/11 00:23:51;;;;;;;5.57;4.27;;;17.10;97.80;;;;;;5095300;28;20206;-43
2022/10/11 00:26:17;;;;;;;7.63;4.47;;;17.10;98.10;;;;;;5094841;28;20472;-44
2022/10/11 00:28:43;;;;;;;6.37;4.30;;;17.00;97.90;;;;;;5096212;28;20170;-44
2022/10/11 00:31:11;;;;;;;5.77;4.37;;;17.00;97.90;;;;;;5096185;28;20199;-43
2022/10/11 00:33:37;;;;;;;6.53;3.93;;;17.00;98.00;;;;;;5096672;28;20457;-44
2022/10/11 00:36:03;;;;;;;5.60;3.40;;;17.00;97.90;;;;;;5097366;28;20508;-43
2022/10/11 00:38:29;;;;;;;5.33;3.93;;;16.90;97.90;;;;;;5098725;28;20179;-45
2022/10/11 00:40:55;;;;;;;4.40;4.00;;;16.90;97.90;;;;;;5098233;28;20519;-45
2022/10/11 00:43:23;;;;;;;6.20;3.70;;;16.90;98.00;;;;;;5097041;28;20194;-43
2022/10/11 00:45:49;;;;;;;5.00;3.57;;;16.80;98.00;;;;;;5098023;28;20328;-44
2022/10/11 00:48:21;;;;;;;9.60;4.63;;;16.80;98.00;;;;;;5097812;28;20517;-43
2022/10/11 00:50:46;;;;;;;4.77;4.07;;;16.80;98.10;;;;;;5096869;28;20181;-43
2022/10/11 00:53:13;;;;;;;5.63;3.27;;;16.80;98.10;;;;;;5097482;28;20518;-43
2022/10/11 00:55:49;;;;;;;5.27;4.10;;;16.80;98.20;;;;;;5098028;28;20302;-43
2022/10/11 00:58:15;;;;;;;5.83;3.90;;;16.80;98.20;;;;;;5097729;28;20720;-43
2022/10/11 01:00:41;;;;;;;5.60;3.93;;;16.80;98.20;;;;;;5097484;28;20764;-43
2022/10/11 01:03:07;;;;;;;5.00;3.93;;;16.80;98.20;;;;;;5098601;28;20417;-45
2022/10/11 01:05:35;;;;;;;5.63;3.83;;;16.80;98.20;;;;;;5097993;28;20849;-48
2022/10/11 01:08:01;;;;;;;6.77;4.13;;;16.80;98.30;;;;;;5097774;28;20191;-45
2022/10/11 01:10:28;;;;;;;4.57;3.90;;;16.80;98.30;;;;;;5096788;28;20552;-43
2022/10/11 01:13:28;;;;;;;4.87;3.93;;;16.80;98.30;;;;;;5098104;28;20447;-43
2022/10/11 01:16:04;;;;;;;7.13;3.70;;;16.80;98.40;;;;;;5096491;28;20909;-44
2022/10/11 01:18:34;;;;;;;7.13;4.00;;;16.80;98.40;;;;;;5095873;28;20435;-44
2022/10/11 01:21:21;;;;;;;5.17;4.00;;;16.80;98.40;;;;;;5095904;28;20446;-46
2022/10/11 01:24:06;;;;;;;5.13;4.63;;;16.90;98.50;;;;;;5097860;28;20424;-45
2022/10/11 01:26:56;;;;;;;5.30;4.10;;;16.90;98.50;;;;;;5097330;28;20510;-45
2022/10/11 01:29:37;;;;;;;6.23;4.03;;;16.90;98.50;;;;;;5097504;28;20830;-43
2022/10/11 01:32:15;;;;;;;5.70;4.13;;;16.90;98.60;;;;;;5097745;28;20890;-45
2022/10/11 01:34:46;;;;;;;8.47;4.33;;;16.90;98.60;;;;;;5097120;28;20469;-45
2022/10/11 01:37:23;;;;;;;9.70;4.20;;;16.90;98.60;;;;;;5096683;28;20418;-45
2022/10/11 01:40:08;;;;;;;4.53;3.40;;;16.90;98.60;;;;;;5097105;28;20462;-43
2022/10/11 01:42:36;;;;;;;4.90;3.83;;;16.90;98.60;;;;;;5096153;28;20462;-46
2022/10/11 01:45:02;;;;;;;9.33;3.80;;;16.90;98.60;;;;;;5097286;28;20456;-45
2022/10/11 01:47:28;;;;;;;5.43;4.17;;;16.90;98.70;;;;;;5096058;28;20536;-45
2022/10/11 01:49:56;;;;;;;5.97;4.00;;;16.90;98.70;;;;;;5097154;28;20484;-48
2022/10/11 01:52:22;;;;;;;7.93;3.87;;;16.90;98.70;;;;;;5097288;28;20640;-43
2022/10/11 01:55:36;;;;;;;6.37;4.00;;;16.90;98.80;;;;;;5097091;28;20596;-45
2022/10/11 01:58:17;;;;;;;3.93;3.53;;;16.90;98.70;;;;;;5072120;28;20839;-44
2022/10/11 02:00:54;;;;;;;5.53;4.00;;;16.90;98.70;;;;;;5056904;28;20417;-43
2022/10/11 02:03:28;;;;;;;5.10;3.70;;;16.90;98.80;;;;;;5056775;28;20427;-46
2022/10/11 02:06:02;;;;;;;5.73;3.80;;;16.90;98.70;;;;;;5072662;28;20423;-45
2022/10/11 02:08:55;;;;;;;4.03;3.37;;;16.90;98.70;;;;;;5055974;28;20415;-44
2022/10/11 02:11:27;;;;;;;6.67;4.43;;;16.90;98.70;;;;;;5071037;28;20436;-44
2022/10/11 02:14:05;;;;;;;5.97;4.20;;;16.90;98.70;;;;;;5072098;28;20848;-43
2022/10/11 02:16:43;;;;;;;6.20;4.50;;;16.90;98.70;;;;;;5071634;28;20742;-42
2022/10/11 02:19:11;;;;;;;6.20;3.90;;;16.90;98.70;;;;;;5056316;28;20424;-42
2022/10/11 02:21:38;;;;;;;6.87;4.63;;;16.80;98.60;;;;;;5071551;28;20432;-43
2022/10/11 02:24:11;;;;;;;6.83;4.20;;;16.80;98.60;;;;;;5071969;28;20432;-43
2022/10/11 02:26:39;;;;;;;6.13;4.23;;;16.80;98.60;;;;;;5072499;28;20433;-46
2022/10/11 02:29:07;;;;;;;6.47;4.20;;;16.80;98.60;;;;;;5056590;28;20441;-44
2022/10/11 02:31:34;;;;;;;9.27;4.00;;;16.80;98.60;;;;;;5056586;28;20773;-46
2022/10/11 02:34:08;;;;;;;5.73;3.97;;;16.80;98.70;;;;;;5055881;28;20509;-45
2022/10/11 02:37:03;;;;;;;5.27;4.47;;;16.70;99.00;;;;;;5070672;28;20987;-44
2022/10/11 02:39:52;;;;;;;7.00;4.53;;;16.70;98.70;;;;;;5052805;28;20556;-43
2022/10/11 02:42:29;;;;;;;5.17;4.67;;;16.70;98.70;;;;;;5055288;28;20420;-42
2022/10/11 02:45:37;;;;;;;6.17;4.60;;;16.70;98.70;;;;;;5070632;28;20725;-48
2022/10/11 02:48:04;;;;;;;7.37;4.90;;;16.60;98.80;;;;;;5054190;28;20438;-45
2022/10/11 02:50:30;;;;;;;5.80;4.60;;;16.60;98.80;;;;;;5070550;28;20419;-47
2022/10/11 02:52:56;;;;;;;8.10;5.37;;;16.60;98.90;;;;;;5056004;28;20548;-44
2022/10/11 02:55:21;;;;;;;7.57;5.10;;;16.60;98.90;;;;;;5055873;28;20495;-44
2022/10/11 02:57:47;;;;;;;9.90;5.40;;;16.60;98.90;;;;;;5088405;28;20227;-46
2022/10/11 03:00:13;;;;;;;10.03;5.40;;;16.60;99.00;;;;;;5099936;28;20198;-48
2022/10/11 03:02:39;;;;;;;6.87;5.10;;;16.60;99.00;;;;;;5099989;28;20401;-47
2022/10/11 03:05:05;;;;;;;8.87;5.60;;;16.60;99.00;;;;;;5099647;28;20438;-42
2022/10/11 03:07:30;;;;;;;6.10;5.50;;;16.60;99.00;;;;;;5099596;28;20193;-42
2022/10/11 03:09:56;;;;;;;6.77;5.50;;;16.60;99.10;;;;;;5099894;28;20335;-43
2022/10/11 03:12:22;;;;;;;7.40;5.40;;;16.60;99.10;;;;;;5099802;28;20462;-45
2022/10/11 03:14:48;;;;;;;6.60;5.53;;;16.60;99.10;;;;;;5099778;28;20495;-44
2022/10/11 03:17:13;;;;;;;6.80;5.63;;;16.60;99.10;;;;;;5100206;28;20276;-45
2022/10/11 03:19:39;;;;;;;9.30;6.43;;;16.60;99.10;;;;;;5099258;28;20416;-48
2022/10/11 03:22:05;;;;;;;14.50;12.30;;;16.60;99.00;;;;;;5099164;28;20270;-45
2022/10/11 03:24:30;;;;;;;15.50;12.50;;;16.60;99.00;;;;;;5098613;28;20178;-43
2022/10/11 03:26:56;;;;;;;12.77;11.20;;;16.60;99.00;;;;;;5098388;28;20182;-43
2022/10/11 03:29:21;;;;;;;11.47;9.77;;;16.60;99.00;;;;;;5099128;28;20249;-43
2022/10/11 03:31:47;;;;;;;17.30;12.60;;;16.60;99.10;;;;;;5099583;28;20248;-44
2022/10/11 03:34:13;;;;;;;15.83;12.03;;;16.60;99.10;;;;;;5098778;28;20626;-44
2022/10/11 03:36:38;;;;;;;15.17;11.80;;;16.50;99.10;;;;;;5098744;28;20276;-47
2022/10/11 03:39:04;;;;;;;13.13;11.53;;;16.50;99.20;;;;;;5097026;28;20242;-45
2022/10/11 03:41:30;;;;;;;15.07;13.43;;;16.50;99.20;;;;;;5096334;28;20505;-43
2022/10/11 03:43:56;;;;;;;15.70;14.13;;;16.50;99.20;;;;;;5095108;28;20708;-47
2022/10/11 03:46:22;;;;;;;18.80;14.47;;;16.50;99.30;;;;;;5094175;28;20497;-44
2022/10/11 03:48:47;;;;;;;14.57;12.87;;;16.40;99.30;;;;;;5095316;28;20176;-44
2022/10/11 03:51:14;;;;;;;16.60;13.33;;;16.40;99.30;;;;;;5095002;28;20544;-43
2022/10/11 03:53:40;;;;;;;15.63;12.83;;;16.40;99.30;;;;;;5094639;28;20415;-45
2022/10/11 03:56:06;;;;;;;13.27;11.97;;;16.40;99.30;;;;;;5092192;28;20973;-46
2022/10/11 03:58:32;;;;;;;13.80;12.40;;;16.40;99.40;;;;;;5094089;28;20481;-43
2022/10/11 04:00:58;;;;;;;16.97;13.20;;;16.40;99.40;;;;;;5095607;28;20546;-45
2022/10/11 04:03:24;;;;;;;18.70;13.73;;;16.30;99.30;;;;;;5093569;28;20175;-44
2022/10/11 04:05:49;;;;;;;17.60;14.70;;;16.30;99.40;;;;;;5096396;28;20442;-44
2022/10/11 04:08:15;;;;;;;16.50;14.80;;;16.30;99.40;;;;;;5093355;28;20498;-44
2022/10/11 04:10:41;;;;;;;18.43;15.07;;;16.30;99.40;;;;;;5094868;28;20193;-44
2022/10/11 04:13:06;;;;;;;14.37;12.83;;;16.30;99.40;;;;;;5096779;28;20169;-43
2022/10/11 04:15:32;;;;;;;14.57;13.17;;;16.30;99.40;;;;;;5096364;28;20295;-43
2022/10/11 04:17:58;;;;;;;16.10;14.40;;;16.30;99.40;;;;;;5098659;28;20186;-45
2022/10/11 04:20:24;;;;;;;14.00;12.60;;;16.20;99.40;;;;;;5097019;28;20253;-45
2022/10/11 04:22:50;;;;;;;18.20;12.17;;;16.20;99.40;;;;;;5096561;28;20413;-44
2022/10/11 04:25:15;;;;;;;15.87;13.00;;;16.20;99.40;;;;;;5079051;28;20791;-44
2022/10/11 04:27:41;;;;;;;16.07;13.97;;;16.20;99.40;;;;;;5097326;28;20633;-48
2022/10/11 04:30:08;;;;;;;14.87;12.10;;;16.20;99.40;;;;;;5096955;28;20572;-45
2022/10/11 04:32:34;;;;;;;16.47;13.40;;;16.20;99.40;;;;;;5096974;28;20572;-43
2022/10/11 04:35:00;;;;;;;16.03;12.33;;;16.20;99.40;;;;;;5080155;28;20775;-45
2022/10/11 04:37:26;;;;;;;18.17;12.30;;;16.20;99.40;;;;;;5098068;28;20528;-46
2022/10/11 04:39:51;;;;;;;18.57;13.50;;;16.10;99.40;;;;;;5098137;28;20429;-43
2022/10/11 04:42:17;;;;;;;15.50;11.23;;;16.10;99.40;;;;;;5097486;28;20168;-44
2022/10/11 04:44:43;;;;;;;14.67;12.27;;;16.10;99.40;;;;;;5096979;28;20174;-44
2022/10/11 04:47:08;;;;;;;15.27;12.37;;;16.10;99.40;;;;;;5098593;28;20264;-44
2022/10/11 04:49:34;;;;;;;17.17;11.70;;;16.10;99.40;;;;;;5094896;28;20574;-45
2022/10/11 04:51:59;;;;;;;14.93;11.40;;;16.10;99.40;;;;;;5094286;28;20574;-46
2022/10/11 04:54:25;;;;;;;18.43;13.00;;;16.10;99.40;;;;;;5093877;28;20176;-48
2022/10/11 04:56:51;;;;;;;14.27;11.07;;;16.10;99.50;;;;;;5092297;28;20510;-45
2022/10/11 04:59:16;;;;;;;15.10;12.40;;;16.10;99.50;;;;;;5091935;28;20712;-44
2022/10/11 05:01:42;;;;;;;14.13;12.00;;;16.10;99.50;;;;;;5090951;28;20740;-43
2022/10/11 05:04:08;;;;;;;15.57;12.83;;;16.10;99.50;;;;;;5091827;28;20510;-46
2022/10/11 05:06:33;;;;;;;15.07;12.70;;;16.10;99.40;;;;;;5094595;28;20216;-43
2022/10/11 05:08:59;;;;;;;14.23;11.07;;;16.10;99.50;;;;;;5093936;28;20190;-44
2022/10/11 05:11:26;;;;;;;16.10;12.90;;;16.00;99.80;;;;;;5093666;28;20226;-44
2022/10/11 05:13:55;;;;;;;15.90;14.20;;;16.00;99.50;;;;;;5095196;28;20206;-45
2022/10/11 05:16:22;;;;;;;23.50;15.20;;;15.90;99.60;;;;;;5094297;28;20484;-44
2022/10/11 05:18:47;;;;;;;20.67;14.97;;;15.90;99.80;;;;;;5091044;28;20415;-45
2022/10/11 05:21:15;;;;;;;22.77;14.10;;;15.80;99.90;;;;;;5083359;28;20829;-43
2022/10/11 05:23:41;;;;;;;18.67;14.77;;;15.80;99.90;;;;;;5089172;28;20454;-43
2022/10/11 05:26:06;;;;;;;16.40;14.13;;;15.70;99.90;;;;;;5089410;28;20528;-46
2022/10/11 05:28:32;;;;;;;23.40;14.10;;;15.70;99.90;;;;;;5090208;28;20673;-45
2022/10/11 05:30:58;;;;;;;15.93;13.90;;;15.60;99.90;;;;;;5087409;28;20177;-45
2022/10/11 05:33:25;;;;;;;16.80;14.17;;;15.60;99.90;;;;;;5091675;28;20277;-44
2022/10/11 05:35:51;;;;;;;16.30;14.27;;;15.60;99.90;;;;;;5094010;28;20552;-45
2022/10/11 05:38:17;;;;;;;19.73;14.13;;;15.60;99.90;;;;;;5094385;28;20475;-46
2022/10/11 05:40:43;;;;;;;17.93;13.30;;;15.60;99.90;;;;;;5090414;28;20503;-47
2022/10/11 05:43:09;;;;;;;18.80;14.37;;;15.60;99.90;;;;;;5089656;28;21137;-46
2022/10/11 05:45:38;;;;;;;20.60;14.47;;;15.60;99.90;;;;;;5088047;28;20220;-46
2022/10/11 05:48:04;;;;;;;20.93;15.63;;;15.60;99.90;;;;;;5087465;28;20177;-45
2022/10/11 05:50:30;;;;;;;20.33;14.47;;;15.60;99.90;;;;;;5090746;28;20427;-46
2022/10/11 05:52:56;;;;;;;16.80;15.00;;;15.60;99.90;;;;;;5091699;28;20435;-44
2022/10/11 05:55:22;;;;;;;21.43;14.83;;;15.60;99.90;;;;;;5090935;28;20585;-45
2022/10/11 05:57:51;;;;;;;21.77;15.80;;;15.60;99.90;;;;;;5090955;28;20567;-46
2022/10/11 06:00:17;;;;;;;18.53;15.77;;;15.60;99.90;;;;;;5088573;28;20331;-46
2022/10/11 06:02:44;;;;;;;24.83;15.50;;;15.60;99.90;;;;;;5086777;28;20433;-44
2022/10/11 06:05:14;;;;;;;20.07;16.67;;;15.60;99.90;;;;;;5087576;28;20751;-45
2022/10/11 06:07:40;;;;;;;18.97;15.07;;;15.70;99.90;;;;;;5089347;28;20705;-47
2022/10/11 06:10:06;;;;;;;17.87;15.60;;;15.70;99.90;;;;;;5088743;28;20514;-45
2022/10/11 06:12:32;;;;;;;18.60;13.87;;;15.70;99.90;;;;;;5088835;28;20806;-46
2022/10/11 06:14:58;;;;;;;17.47;14.63;;;15.70;99.90;;;;;;5090132;28;20530;-46
2022/10/11 06:17:24;;;;;;;17.27;13.90;;;15.80;99.90;;;;;;5089649;28;20429;-43
2022/10/11 06:19:50;;;;;;;21.33;16.20;;;15.80;99.90;;;;;;5093576;28;20190;-45
2022/10/11 06:22:17;;;;;;;16.53;14.40;;;15.80;99.90;;;;;;5092986;28;20178;-45
2022/10/11 06:24:43;;;;;;;20.23;15.57;;;15.80;99.90;;;;;;5094427;28;20596;-47
2022/10/11 06:27:08;;;;;;;17.40;15.20;;;15.80;99.90;;;;;;5093577;28;20443;-46
2022/10/11 06:29:34;;;;;;;19.80;15.60;;;15.80;99.90;;;;;;5092527;28;20805;-44
2022/10/11 06:32:00;;;;;;;17.47;14.97;;;15.80;99.90;;;;;;5094230;28;20183;-43
2022/10/11 06:34:26;;;;;;;19.43;15.47;;;15.90;99.90;;;;;;5094424;28;20426;-45
2022/10/11 06:36:52;;;;;;;18.20;14.10;;;15.90;99.90;;;;;;5093720;28;20720;-45
2022/10/11 06:39:18;;;;;;;18.47;14.27;;;15.90;99.90;;;;;;5094794;28;20421;-46
2022/10/11 06:41:43;;;;;;;15.53;13.77;;;15.90;99.90;;;;;;5092755;28;20257;-46
2022/10/11 06:44:10;;;;;;;18.70;14.70;;;15.90;99.90;;;;;;5092025;28;20179;-43
2022/10/11 06:46:36;;;;;;;18.83;14.13;;;15.90;99.80;;;;;;5090292;28;20506;-46
2022/10/11 06:49:02;;;;;;;17.00;14.27;;;15.90;99.80;;;;;;5091445;28;20525;-43
2022/10/11 06:51:29;;;;;;;15.50;13.60;;;16.00;99.80;;;;;;5074360;28;20427;-45
2022/10/11 06:53:56;;;;;;;18.13;14.17;;;16.00;99.80;;;;;;5091211;28;20446;-45
2022/10/11 06:56:23;;;;;;;17.17;14.00;;;16.00;99.60;;;;;;5091281;28;20783;-42
2022/10/11 06:58:50;;;;;;;19.30;13.37;;;16.00;99.60;;;;;;5091946;28;20438;-46
2022/10/11 07:01:17;;;;;;;16.27;13.70;;;16.10;99.60;;;;;;5089566;28;20960;-43
2022/10/11 07:03:44;;;;;;;20.10;14.40;;;16.10;99.50;;;;;;5091509;28;20458;-44
2022/10/11 07:06:13;;;;;;;20.03;14.23;;;16.10;99.50;;;;;;5092193;28;20418;-45
2022/10/11 07:08:39;;;;;;;15.97;14.30;;;16.20;99.50;;;;;;5093780;28;20599;-45
2022/10/11 07:11:13;;;;;;;19.30;14.43;;;16.20;99.30;;;;;;5093910;28;20510;-42
2022/10/11 07:13:39;;;;;;;14.73;11.93;;;16.20;99.30;;;;;;5089701;28;20444;-45
2022/10/11 07:16:08;;;;;;;16.13;12.93;;;16.20;99.20;;;;;;5088230;28;20545;-45
2022/10/11 07:18:33;;;;;;;16.93;13.30;;;16.30;99.20;;;;;;5088136;28;20425;-44
2022/10/11 07:21:09;;;;;;;16.90;13.90;;;16.30;99.10;;;;;;5087094;28;20417;-45
2022/10/11 07:23:35;;;;;;;19.83;13.10;;;16.40;99.00;;;;;;5089389;28;20238;-44
2022/10/11 07:26:01;;;;;;;15.63;13.20;;;16.40;99.00;;;;;;5088549;28;20830;-43
2022/10/11 07:28:29;;;;;;;18.50;13.13;;;16.50;98.90;;;;;;5089738;28;20184;-45
2022/10/11 07:30:55;;;;;;;13.83;12.53;;;16.50;98.80;;;;;;5089627;28;20184;-47
2022/10/11 07:33:20;;;;;;;21.37;14.07;;;16.50;98.80;;;;;;5091281;28;20422;-46
2022/10/11 07:35:48;;;;;;;15.60;13.87;;;16.60;98.70;;;;;;5091175;28;20785;-45
2022/10/11 07:38:14;;;;;;;13.90;12.53;;;16.70;98.70;;;;;;5090817;28;20182;-43
2022/10/11 07:40:44;;;;;;;17.20;13.80;;;16.70;98.60;;;;;;5090671;28;20432;-44
2022/10/11 07:43:10;;;;;;;18.00;14.90;;;16.80;98.50;;;;;;5072534;28;20174;-44
2022/10/11 07:45:38;;;;;;;16.77;12.97;;;16.80;98.30;;;;;;5093825;28;20435;-45
2022/10/11 07:48:04;;;;;;;18.10;13.63;;;16.90;98.20;;;;;;5092236;28;20449;-43
2022/10/11 07:50:30;;;;;;;19.43;13.33;;;17.10;98.20;;;;;;5091667;28;20704;-43
2022/10/11 07:52:55;;;;;;;14.03;12.57;;;17.20;98.00;;;;;;5092221;28;20553;-43
2022/10/11 07:55:21;;;;;;;14.63;12.00;;;17.30;97.80;;;;;;5095103;28;20209;-45
2022/10/11 07:57:47;;;;;;;18.70;13.47;;;17.50;97.60;;;;;;5094400;28;20256;-46
2022/10/11 08:00:13;;;;;;;16.70;12.27;;;17.60;97.40;;;;;;5096314;28;20569;-45
2022/10/11 08:02:38;;;;;;;16.20;12.47;;;17.80;97.20;;;;;;5096653;28;20181;-44
2022/10/11 08:05:04;;;;;;;15.60;12.00;;;17.90;96.90;;;;;;5097152;28;20471;-46
2022/10/11 08:07:30;;;;;;;15.93;12.43;;;18.10;96.80;;;;;;5097421;28;20304;-45
2022/10/11 08:09:56;;;;;;;13.17;11.87;;;18.20;96.50;;;;;;5096423;28;20519;-44
2022/10/11 08:12:22;;;;;;;17.13;11.93;;;18.30;96.20;;;;;;5098270;28;20766;-46
2022/10/11 08:14:48;;;;;;;14.50;12.50;;;18.50;96.00;;;;;;5099077;28;20421;-46
2022/10/11 08:17:13;;;;;;;14.20;12.60;;;18.60;95.90;;;;;;5097964;28;20609;-45
2022/10/11 08:19:39;;;;;;;16.73;12.90;;;18.90;95.60;;;;;;5098114;28;20452;-45
2022/10/11 08:22:05;;;;;;;14.87;11.47;;;19.40;95.50;;;;;;5097362;28;20209;-46
2022/10/11 08:24:31;;;;;;;15.63;11.83;;;19.90;94.90;;;;;;5097067;28;20456;-45
2022/10/11 08:26:57;;;;;;;12.93;11.43;;;20.50;93.90;;;;;;5095928;28;20852;-46
2022/10/11 08:29:22;;;;;;;13.97;10.97;;;20.80;92.80;;;;;;5096335;28;20287;-43
2022/10/11 08:31:48;;;;;;;13.43;10.93;;;21.00;92.20;;;;;;5096543;28;20507;-46
2022/10/11 08:34:14;;;;;;;12.30;10.03;;;21.20;91.80;;;;;;5077341;28;20187;-44
2022/10/11 08:36:39;;;;;;;12.07;10.80;;;21.20;91.40;;;;;;5075690;28;20208;-43
2022/10/11 08:39:06;;;;;;;13.20;11.10;;;21.20;91.10;;;;;;5075607;28;20190;-45
2022/10/11 08:41:48;;;;;;;15.57;10.60;;;21.30;91.00;;;;;;5075103;28;20233;-44
2022/10/11 08:44:42;;;;;;;12.37;10.80;;;21.50;90.70;;;;;;5073559;28;20690;-47
2022/10/11 08:47:23;;;;;;;15.20;11.70;;;21.90;90.20;;;;;;5071309;28;20426;-43
2022/10/11 08:49:49;;;;;;;11.70;10.30;;;22.10;89.20;;;;;;5073166;28;20505;-46
2022/10/11 08:52:18;;;;;;;13.63;10.90;;;22.20;88.30;;;;;;5073005;28;20413;-44
2022/10/11 08:54:50;;;;;;;11.70;10.60;;;22.20;87.50;;;;;;5074686;28;20479;-45
2022/10/11 08:57:19;;;;;;;12.83;10.47;;;22.00;87.00;;;;;;5076016;28;20469;-43
2022/10/11 08:59:57;;;;;;;12.07;9.90;;;21.70;87.50;;;;;;5073964;28;20410;-46
2022/10/11 09:02:46;;;;;;;13.67;11.10;;;21.40;87.80;;;;;;5076745;28;20804;-45
2022/10/11 09:05:16;;;;;;;12.50;11.20;;;21.10;88.30;;;;;;5076324;28;20902;-44
2022/10/11 09:08:09;;;;;;;13.87;11.13;;;20.90;89.00;;;;;;5076633;28;20494;-45
2022/10/11 09:10:41;;;;;;;15.47;11.80;;;20.60;89.80;;;;;;5076166;28;20801;-45
2022/10/11 09:13:34;;;;;;;14.47;11.67;;;20.50;90.20;;;;;;5076034;28;20500;-44
2022/10/11 09:16:15;;;;;;;11.67;9.67;;;20.30;90.40;;;;;;5074877;28;20479;-47
2022/10/11 09:19:16;;;;;;;11.73;9.87;;;20.30;90.50;;;;;;5055694;28;20426;-44
2022/10/11 09:22:04;;;;;;;12.97;11.60;;;20.30;90.60;;;;;;5071096;28;20423;-45
2022/10/11 09:24:55;;;;;;;12.20;10.20;;;20.30;90.70;;;;;;5075187;28;20586;-45
2022/10/11 09:27:30;;;;;;;16.13;10.80;;;20.20;90.70;;;;;;5075862;28;20747;-45
2022/10/11 09:29:59;;;;;;;13.23;11.13;;;20.20;90.80;;;;;;5076805;28;20521;-44
2022/10/11 09:32:31;;;;;;;10.73;9.60;;;20.20;90.70;;;;;;5074632;28;20427;-46
2022/10/11 09:35:09;;;;;;;14.00;10.60;;;20.10;90.80;;;;;;5076793;28;20441;-44
2022/10/11 09:38:00;;;;;;;13.97;10.37;;;20.10;90.80;;;;;;5076152;28;20408;-45
2022/10/11 09:40:43;;;;;;;10.53;9.53;;;20.10;90.90;;;;;;5071495;28;20438;-43
2022/10/11 09:43:09;;;;;;;12.20;11.10;;;20.00;90.90;;;;;;5073933;28;20449;-56
2022/10/11 09:45:35;;;;;;;13.93;11.27;;;20.00;90.90;;;;;;5073988;28;20471;-45
2022/10/11 09:48:05;;;;;;;14.07;11.23;;;19.90;90.90;;;;;;5083547;28;20244;-45
2022/10/11 09:50:34;;;;;;;13.00;9.93;;;19.90;91.00;;;;;;5095172;28;20478;-45
2022/10/11 09:53:03;;;;;;;12.23;10.83;;;19.80;91.30;;;;;;5096191;28;20439;-46
2022/10/11 09:55:52;;;;;;;14.20;10.80;;;19.70;91.00;;;;;;5095959;28;20480;-43
2022/10/11 09:58:33;;;;;;;16.20;10.27;;;19.60;91.00;;;;;;5094668;28;20562;-47
2022/10/11 10:01:05;;;;;;;10.73;9.13;;;19.60;91.10;;;;;;5095958;28;20530;-44
2022/10/11 10:03:33;;;;;;;11.27;10.00;;;19.60;91.10;;;;;;5095787;28;20412;-44
2022/10/11 10:06:24;;;;;;;11.10;10.00;;;19.60;91.20;;;;;;5095759;28;20487;-44
2022/10/11 10:08:50;;;;;;;11.67;10.50;;;19.60;91.20;;;;;;5096203;28;20421;-46
2022/10/11 10:11:17;;;;;;;13.43;10.90;;;19.60;91.20;;;;;;5096103;28;20500;-44
2022/10/11 10:13:49;;;;;;;12.83;10.77;;;19.60;91.20;;;;;;5095276;28;20707;-44
2022/10/11 10:16:24;;;;;;;11.37;10.20;;;19.60;91.30;;;;;;5094571;28;20474;-45
2022/10/11 10:18:56;;;;;;;11.50;10.00;;;19.60;91.30;;;;;;5094633;28;20431;-44
2022/10/11 10:21:36;;;;;;;11.83;10.53;;;19.60;91.30;;;;;;5095377;28;20766;-45
2022/10/11 10:24:16;;;;;;;13.97;11.53;;;19.80;91.40;;;;;;5094435;28;20486;-46
2022/10/11 10:26:42;;;;;;;14.63;10.40;;;19.80;91.30;;;;;;5094300;28;20532;-46
2022/10/11 10:29:07;;;;;;;12.77;11.50;;;19.90;91.10;;;;;;5092815;28;20533;-44
2022/10/11 10:31:39;;;;;;;13.23;10.40;;;19.90;91.00;;;;;;5093787;28;20178;-46
2022/10/11 10:34:33;;;;;;;15.63;11.37;;;20.00;90.90;;;;;;5090617;28;20192;-44
2022/10/11 10:37:31;;;;;;;12.67;10.90;;;19.90;90.70;;;;;;5091483;28;20477;-44
2022/10/11 10:40:11;;;;;;;12.13;10.60;;;20.00;90.70;;;;;;5092613;28;20445;-44
2022/10/11 10:42:43;;;;;;;13.67;11.43;;;19.90;90.70;;;;;;5094170;28;20425;-45
2022/10/11 10:45:21;;;;;;;14.23;12.23;;;19.90;90.80;;;;;;5095430;28;20456;-45
2022/10/11 10:47:58;;;;;;;14.23;12.13;;;19.90;90.80;;;;;;5093056;28;20931;-44
2022/10/11 10:50:29;;;;;;;17.20;12.70;;;19.80;90.90;;;;;;5093965;28;20438;-43
2022/10/11 10:53:28;;;;;;;13.80;12.27;;;19.70;90.80;;;;;;5093014;28;20675;-44
2022/10/11 10:56:11;;;;;;;20.70;12.90;;;19.70;90.90;;;;;;5076696;28;20474;-48
2022/10/11 10:58:54;;;;;;;15.70;11.50;;;19.70;90.80;;;;;;5092815;28;20475;-45
2022/10/11 11:01:26;;;;;;;19.93;12.60;;;19.80;90.90;;;;;;5090827;28;20399;-45
2022/10/11 11:04:00;;;;;;;17.63;13.13;;;19.80;90.90;;;;;;5089795;28;20774;-45
2022/10/11 11:06:32;;;;;;;12.90;10.73;;;19.80;90.90;;;;;;5090196;28;20420;-46
2022/10/11 11:09:23;;;;;;;15.33;12.43;;;19.90;90.80;;;;;;5092556;28;20773;-47
2022/10/11 11:12:24;;;;;;;12.33;11.10;;;20.00;90.70;;;;;;5092304;28;20419;-47
2022/10/11 11:15:02;;;;;;;15.27;11.50;;;20.10;90.50;;;;;;5050859;28;20523;-43
2022/10/11 11:17:34;;;;;;;12.60;10.20;;;20.20;90.40;;;;;;5088843;28;20515;-45
2022/10/11 11:20:38;;;;;;;12.00;10.03;;;20.30;90.40;;;;;;5094377;28;20506;-45
2022/10/11 11:23:18;;;;;;;14.17;10.40;;;20.40;90.20;;;;;;5094951;28;20521;-45
2022/10/11 11:25:56;;;;;;;11.10;9.67;;;20.50;89.90;;;;;;5096793;28;20758;-46
2022/10/11 11:28:45;;;;;;;15.37;9.83;;;20.50;89.40;;;;;;5091782;28;20496;-46
2022/10/11 11:31:37;;;;;;;12.33;8.63;;;20.60;88.90;;;;;;5093754;28;20487;-42
2022/10/11 11:34:11;;;;;;;11.57;9.17;;;20.60;88.70;;;;;;5096418;28;20724;-43
2022/10/11 11:36:47;;;;;;;9.83;8.83;;;20.70;88.60;;;;;;5095407;28;20472;-45
2022/10/11 11:39:23;;;;;;;9.47;8.50;;;20.70;88.00;;;;;;5093796;28;20418;-44
2022/10/11 11:41:54;;;;;;;11.33;9.77;;;20.70;87.70;;;;;;5090553;28;20438;-44
2022/10/11 11:44:30;;;;;;;10.17;9.03;;;20.70;87.70;;;;;;5094384;28;20428;-44
2022/10/11 11:47:16;;;;;;;12.50;9.63;;;20.60;87.70;;;;;;5093473;28;20897;-43
2022/10/11 11:50:13;;;;;;;14.50;10.20;;;20.60;87.80;;;;;;5093162;28;20753;-45
2022/10/11 11:52:43;;;;;;;16.90;9.73;;;20.60;87.80;;;;;;5093682;28;20855;-48
2022/10/11 11:55:36;;;;;;;10.30;8.03;;;20.60;87.90;;;;;;5093196;28;20462;-48
2022/10/11 11:58:29;;;;;;;11.27;9.77;;;20.60;88.00;;;;;;5094017;28;20463;-46
2022/10/11 12:01:16;;;;;;;11.13;9.90;;;20.60;88.00;;;;;;5093543;28;20455;-48
2022/10/11 12:03:47;;;;;;;10.30;8.53;;;20.60;88.10;;;;;;5082134;28;20432;-45
2022/10/11 12:06:12;;;;;;;10.40;8.83;;;20.50;87.90;;;;;;5094805;28;20577;-47
2022/10/11 12:09:00;;;;;;;10.63;9.40;;;20.50;88.10;;;;;;5093673;28;20425;-44
2022/10/11 12:11:41;;;;;;;12.70;9.93;;;20.50;88.30;;;;;;5094225;28;20180;-47
2022/10/11 12:14:26;;;;;;;9.83;8.57;;;20.50;88.60;;;;;;5094511;28;20527;-44
2022/10/11 12:17:20;;;;;;;13.50;9.87;;;20.50;88.70;;;;;;5096954;28;20466;-46
2022/10/11 12:20:10;;;;;;;9.20;8.40;;;20.50;88.60;;;;;;5094879;28;20767;-44
2022/10/11 12:22:39;;;;;;;10.47;9.37;;;20.50;88.40;;;;;;5096586;28;20422;-45
2022/10/11 12:25:08;;;;;;;12.20;9.60;;;20.50;88.30;;;;;;5095360;28;20422;-44
2022/10/11 12:27:45;;;;;;;10.37;8.53;;;20.50;88.10;;;;;;5096357;28;20728;-44
2022/10/11 12:30:49;;;;;;;9.50;8.30;;;20.50;88.30;;;;;;5095788;28;20410;-45
2022/10/11 12:33:47;;;;;;;10.53;9.13;;;20.60;88.30;;;;;;5095984;28;20771;-45
2022/10/11 12:36:30;;;;;;;10.13;9.10;;;20.70;88.20;;;;;;5095750;28;20464;-46
2022/10/11 12:39:20;;;;;;;12.27;8.73;;;20.70;87.80;;;;;;5097391;28;20499;-44
2022/10/11 12:41:49;;;;;;;10.57;8.57;;;20.70;87.60;;;;;;5097775;28;20413;-45
2022/10/11 12:44:19;;;;;;;11.90;8.43;;;20.80;87.40;;;;;;5095068;28;20436;-44
2022/10/11 12:46:53;;;;;;;11.83;7.73;;;20.90;87.30;;;;;;5093786;28;20500;-47
2022/10/11 12:49:23;;;;;;;10.90;8.50;;;21.00;86.90;;;;;;5095569;28;20494;-44
2022/10/11 12:52:07;;;;;;;10.27;9.27;;;21.10;86.40;;;;;;5094299;28;20422;-44
2022/10/11 12:54:51;;;;;;;10.53;9.30;;;21.20;86.00;;;;;;5093563;28;20844;-46
2022/10/11 12:57:44;;;;;;;9.53;7.80;;;21.30;85.70;;;;;;5091714;28;20468;-48